sensor_id;sensor_type;location;lat;lon;timestamp;P1;durP1;ratioP1;P2;durP2;ratioP2
53939;SDS011;39850;43.324;21.916;2023-07-30T00:29:29;9.0;;;8.0;;
53939;SDS011;39850;43.324;21.916;2023-07-30T00:34:05;9.0;;;8.0;;
53939;SDS011;39850;43.324;21.916;2023-07-30T00:38:42;9.0;;;8.0;;
53939;SDS011;39850;43.324;21.916;2023-07-30T00:43:19;9.0;;;8.0;;
53939;SDS011;39850;43.324;21.916;2023-07-30T00:47:56;9.0;;;8.0;;
53939;SDS011;39850;43.324;21.916;2023-07-30T00:52:35;9.0;;;8.0;;
53939;SDS011;39850;43.324;21.916;2023-07-30T00:57:17;9.0;;;8.0;;
53939;SDS011;39850;43.324;21.916;2023-07-30T01:02:00;9.0;;;8.0;;
53939;SDS011;39850;43.324;21.916;2023-07-30T01:06:39;9.0;;;8.0;;
53939;SDS011;39850;43.324;21.916;2023-07-30T01:11:19;9.0;;;8.0;;
53939;SDS011;39850;43.324;21.916;2023-07-30T01:15:57;9.0;;;8.0;;
53939;SDS011;39850;43.324;21.916;2023-07-30T01:49:05;9.0;;;8.0;;
53939;SDS011;39850;43.324;21.916;2023-07-30T01:53:41;9.0;;;8.0;;
53939;SDS011;39850;43.324;21.916;2023-07-30T01:58:18;9.0;;;8.0;;
53939;SDS011;39850;43.324;21.916;2023-07-30T02:02:55;9.0;;;8.0;;
53939;SDS011;39850;43.324;21.916;2023-07-30T02:07:31;9.0;;;8.0;;
53939;SDS011;39850;43.324;21.916;2023-07-30T02:12:09;9.0;;;8.0;;
53939;SDS011;39850;43.324;21.916;2023-07-30T02:16:45;9.0;;;8.0;;
53939;SDS011;39850;43.324;21.916;2023-07-30T02:21:22;9.0;;;8.0;;
53939;SDS011;39850;43.324;21.916;2023-07-30T02:25:59;9.0;;;8.0;;
53939;SDS011;39850;43.324;21.916;2023-07-30T02:30:36;9.0;;;8.0;;
53939;SDS011;39850;43.324;21.916;2023-07-30T02:35:13;9.0;;;8.0;;
53939;SDS011;39850;43.324;21.916;2023-07-30T03:12:07;9.0;;;8.0;;
53939;SDS011;39850;43.324;21.916;2023-07-30T03:16:44;9.0;;;8.0;;
53939;SDS011;39850;43.324;21.916;2023-07-30T03:21:21;9.0;;;8.0;;
53939;SDS011;39850;43.324;21.916;2023-07-30T03:25:59;9.0;;;8.0;;
53939;SDS011;39850;43.324;21.916;2023-07-30T03:30:36;9.0;;;8.0;;
53939;SDS011;39850;43.324;21.916;2023-07-30T03:35:13;9.0;;;8.0;;
53939;SDS011;39850;43.324;21.916;2023-07-30T03:39:50;9.0;;;8.0;;
53939;SDS011;39850;43.324;21.916;2023-07-30T03:44:27;9.0;;;8.0;;
53939;SDS011;39850;43.324;21.916;2023-07-30T03:49:04;9.0;;;8.0;;
53939;SDS011;39850;43.324;21.916;2023-07-30T03:53:40;9.0;;;8.0;;
53939;SDS011;39850;43.324;21.916;2023-07-30T03:58:17;9.0;;;8.0;;
53939;SDS011;39850;43.324;21.916;2023-07-30T04:30:35;8.0;;;7.0;;
53939;SDS011;39850;43.324;21.916;2023-07-30T04:35:12;8.0;;;7.0;;
53939;SDS011;39850;43.324;21.916;2023-07-30T04:39:50;8.0;;;8.0;;
53939;SDS011;39850;43.324;21.916;2023-07-30T04:44:27;8.0;;;8.0;;
53939;SDS011;39850;43.324;21.916;2023-07-30T04:49:04;8.0;;;8.0;;
53939;SDS011;39850;43.324;21.916;2023-07-30T04:53:41;9.0;;;8.0;;
53939;SDS011;39850;43.324;21.916;2023-07-30T04:58:17;9.0;;;8.0;;
53939;SDS011;39850;43.324;21.916;2023-07-30T05:02:54;9.0;;;8.0;;
53939;SDS011;39850;43.324;21.916;2023-07-30T05:07:31;9.0;;;8.0;;
53939;SDS011;39850;43.324;21.916;2023-07-30T05:12:08;9.0;;;8.0;;
53939;SDS011;39850;43.324;21.916;2023-07-30T05:16:44;9.0;;;8.0;;
53939;SDS011;39850;43.324;21.916;2023-07-30T05:53:36;16.0;;;17.0;;
53939;SDS011;39850;43.324;21.916;2023-07-30T05:58:14;16.0;;;17.0;;
53939;SDS011;39850;43.324;21.916;2023-07-30T06:02:50;13.0;;;14.0;;
53939;SDS011;39850;43.324;21.916;2023-07-30T06:07:27;13.0;;;14.0;;
53939;SDS011;39850;43.324;21.916;2023-07-30T06:12:06;10.0;;;10.0;;
53939;SDS011;39850;43.324;21.916;2023-07-30T06:16:43;10.0;;;10.0;;
53939;SDS011;39850;43.324;21.916;2023-07-30T06:21:20;10.0;;;9.0;;
53939;SDS011;39850;43.324;21.916;2023-07-30T06:25:57;10.0;;;9.0;;
53939;SDS011;39850;43.324;21.916;2023-07-30T06:30:34;9.0;;;8.0;;
53939;SDS011;39850;43.324;21.916;2023-07-30T06:35:11;9.0;;;8.0;;
53939;SDS011;39850;43.324;21.916;2023-07-30T07:12:08;9.0;;;8.0;;
53939;SDS011;39850;43.324;21.916;2023-07-30T07:16:45;9.0;;;8.0;;
53939;SDS011;39850;43.324;21.916;2023-07-30T07:21:21;9.0;;;8.0;;
53939;SDS011;39850;43.324;21.916;2023-07-30T07:25:58;9.0;;;8.0;;
53939;SDS011;39850;43.324;21.916;2023-07-30T07:30:36;8.0;;;8.0;;
53939;SDS011;39850;43.324;21.916;2023-07-30T07:35:13;8.0;;;8.0;;
53939;SDS011;39850;43.324;21.916;2023-07-30T07:39:50;8.0;;;8.0;;
53939;SDS011;39850;43.324;21.916;2023-07-30T07:44:26;8.0;;;7.0;;
53939;SDS011;39850;43.324;21.916;2023-07-30T07:49:03;8.0;;;7.0;;
53939;SDS011;39850;43.324;21.916;2023-07-30T07:53:40;8.0;;;7.0;;
53939;SDS011;39850;43.324;21.916;2023-07-30T07:58:16;8.0;;;7.0;;
53939;SDS011;39850;43.324;21.916;2023-07-30T08:30:33;9.0;;;7.0;;
53939;SDS011;39850;43.324;21.916;2023-07-30T08:35:10;9.0;;;7.0;;
53939;SDS011;39850;43.324;21.916;2023-07-30T08:39:47;9.0;;;7.0;;
53939;SDS011;39850;43.324;21.916;2023-07-30T08:44:25;18.0;;;16.0;;
53939;SDS011;39850;43.324;21.916;2023-07-30T08:49:02;18.0;;;16.0;;
53939;SDS011;39850;43.324;21.916;2023-07-30T08:53:42;13.0;;;12.0;;
53939;SDS011;39850;43.324;21.916;2023-07-30T08:58:22;13.0;;;12.0;;
53939;SDS011;39850;43.324;21.916;2023-07-30T09:03:09;20.0;;;19.0;;
53939;SDS011;39850;43.324;21.916;2023-07-30T09:07:51;20.0;;;19.0;;
53939;SDS011;39850;43.324;21.916;2023-07-30T09:12:33;13.0;;;12.0;;
53939;SDS011;39850;43.324;21.916;2023-07-30T09:17:18;13.0;;;12.0;;
53939;SDS011;39850;43.324;21.916;2023-07-30T09:54:49;11.0;;;10.0;;
53939;SDS011;39850;43.324;21.916;2023-07-30T09:59:28;11.0;;;10.0;;
53939;SDS011;39850;43.324;21.916;2023-07-30T10:04:12;11.0;;;10.0;;
53939;SDS011;39850;43.324;21.916;2023-07-30T10:09:00;11.0;;;10.0;;
53939;SDS011;39850;43.324;21.916;2023-07-30T10:13:42;10.0;;;9.0;;
53939;SDS011;39850;43.324;21.916;2023-07-30T10:18:19;10.0;;;9.0;;
53939;SDS011;39850;43.324;21.916;2023-07-30T10:23:05;9.0;;;8.0;;
53939;SDS011;39850;43.324;21.916;2023-07-30T10:27:42;9.0;;;8.0;;
53939;SDS011;39850;43.324;21.916;2023-07-30T10:32:19;9.0;;;8.0;;
53939;SDS011;39850;43.324;21.916;2023-07-30T10:36:56;9.0;;;8.0;;
53939;SDS011;39850;43.324;21.916;2023-07-30T11:14:04;10.0;;;9.0;;
53939;SDS011;39850;43.324;21.916;2023-07-30T11:18:44;10.0;;;9.0;;
53939;SDS011;39850;43.324;21.916;2023-07-30T11:23:23;9.0;;;8.0;;
53939;SDS011;39850;43.324;21.916;2023-07-30T11:28:00;9.0;;;8.0;;
53939;SDS011;39850;43.324;21.916;2023-07-30T11:32:37;9.0;;;8.0;;
53939;SDS011;39850;43.324;21.916;2023-07-30T11:37:15;9.0;;;8.0;;
53939;SDS011;39850;43.324;21.916;2023-07-30T11:41:52;8.0;;;8.0;;
53939;SDS011;39850;43.324;21.916;2023-07-30T11:46:29;8.0;;;8.0;;
53939;SDS011;39850;43.324;21.916;2023-07-30T11:51:07;9.0;;;8.0;;
53939;SDS011;39850;43.324;21.916;2023-07-30T11:55:55;9.0;;;8.0;;
53939;SDS011;39850;43.324;21.916;2023-07-30T12:00:33;9.0;;;8.0;;
53939;SDS011;39850;43.324;21.916;2023-07-30T12:33:19;10.0;;;9.0;;
53939;SDS011;39850;43.324;21.916;2023-07-30T12:37:57;10.0;;;9.0;;
53939;SDS011;39850;43.324;21.916;2023-07-30T12:42:33;10.0;;;8.0;;
53939;SDS011;39850;43.324;21.916;2023-07-30T12:47:10;10.0;;;8.0;;
53939;SDS011;39850;43.324;21.916;2023-07-30T12:51:47;9.0;;;8.0;;
53939;SDS011;39850;43.324;21.916;2023-07-30T12:56:24;9.0;;;8.0;;
53939;SDS011;39850;43.324;21.916;2023-07-30T13:01:03;9.0;;;8.0;;
53939;SDS011;39850;43.324;21.916;2023-07-30T13:05:39;9.0;;;8.0;;
53939;SDS011;39850;43.324;21.916;2023-07-30T13:10:16;9.0;;;8.0;;
53939;SDS011;39850;43.324;21.916;2023-07-30T13:14:53;9.0;;;8.0;;
53939;SDS011;39850;43.324;21.916;2023-07-30T13:19:29;9.0;;;8.0;;
53939;SDS011;39850;43.324;21.916;2023-07-30T13:51:43;9.0;;;8.0;;
53939;SDS011;39850;43.324;21.916;2023-07-30T13:56:20;9.0;;;8.0;;
53939;SDS011;39850;43.324;21.916;2023-07-30T14:00:56;9.0;;;8.0;;
53939;SDS011;39850;43.324;21.916;2023-07-30T14:05:33;10.0;;;8.0;;
53939;SDS011;39850;43.324;21.916;2023-07-30T14:10:10;10.0;;;8.0;;
53939;SDS011;39850;43.324;21.916;2023-07-30T14:14:46;9.0;;;8.0;;
53939;SDS011;39850;43.324;21.916;2023-07-30T14:19:23;9.0;;;8.0;;
53939;SDS011;39850;43.324;21.916;2023-07-30T14:24:00;10.0;;;8.0;;
53939;SDS011;39850;43.324;21.916;2023-07-30T14:28:37;10.0;;;8.0;;
53939;SDS011;39850;43.324;21.916;2023-07-30T14:33:14;9.0;;;8.0;;
53939;SDS011;39850;43.324;21.916;2023-07-30T14:37:51;9.0;;;8.0;;
53939;SDS011;39850;43.324;21.916;2023-07-30T15:14:47;21.0;;;21.0;;
53939;SDS011;39850;43.324;21.916;2023-07-30T15:19:24;21.0;;;21.0;;
53939;SDS011;39850;43.324;21.916;2023-07-30T15:24:01;16.0;;;16.0;;
53939;SDS011;39850;43.324;21.916;2023-07-30T15:28:38;16.0;;;16.0;;
53939;SDS011;39850;43.324;21.916;2023-07-30T15:33:15;11.0;;;11.0;;
53939;SDS011;39850;43.324;21.916;2023-07-30T15:37:51;11.0;;;11.0;;
53939;SDS011;39850;43.324;21.916;2023-07-30T15:42:28;10.0;;;10.0;;
53939;SDS011;39850;43.324;21.916;2023-07-30T15:47:06;10.0;;;10.0;;
53939;SDS011;39850;43.324;21.916;2023-07-30T15:51:42;10.0;;;8.0;;
53939;SDS011;39850;43.324;21.916;2023-07-30T15:56:19;10.0;;;8.0;;
53939;SDS011;39850;43.324;21.916;2023-07-30T16:00:55;10.0;;;8.0;;
53939;SDS011;39850;43.324;21.916;2023-07-30T16:33:20;10.0;;;8.0;;
53939;SDS011;39850;43.324;21.916;2023-07-30T16:37:57;10.0;;;8.0;;
53939;SDS011;39850;43.324;21.916;2023-07-30T16:42:33;10.0;;;9.0;;
53939;SDS011;39850;43.324;21.916;2023-07-30T16:47:10;10.0;;;9.0;;
53939;SDS011;39850;43.324;21.916;2023-07-30T16:51:47;10.0;;;9.0;;
53939;SDS011;39850;43.324;21.916;2023-07-30T16:56:24;10.0;;;10.0;;
53939;SDS011;39850;43.324;21.916;2023-07-30T17:01:01;10.0;;;10.0;;
53939;SDS011;39850;43.324;21.916;2023-07-30T17:05:38;24.0;;;16.0;;
53939;SDS011;39850;43.324;21.916;2023-07-30T17:10:15;24.0;;;16.0;;
53939;SDS011;39850;43.324;21.916;2023-07-30T17:14:52;39.0;;;21.0;;
53939;SDS011;39850;43.324;21.916;2023-07-30T17:19:29;39.0;;;21.0;;
53939;SDS011;39850;43.324;21.916;2023-07-30T17:56:22;10.0;;;7.0;;
53939;SDS011;39850;43.324;21.916;2023-07-30T18:01:06;10.0;;;7.0;;
53939;SDS011;39850;43.324;21.916;2023-07-30T18:05:48;10.0;;;8.0;;
53939;SDS011;39850;43.324;21.916;2023-07-30T18:10:24;10.0;;;8.0;;
53939;SDS011;39850;43.324;21.916;2023-07-30T18:15:02;10.0;;;8.0;;
53939;SDS011;39850;43.324;21.916;2023-07-30T18:19:38;10.0;;;8.0;;
53939;SDS011;39850;43.324;21.916;2023-07-30T18:24:15;10.0;;;8.0;;
53939;SDS011;39850;43.324;21.916;2023-07-30T18:28:52;10.0;;;8.0;;
53939;SDS011;39850;43.324;21.916;2023-07-30T18:33:28;10.0;;;8.0;;
53939;SDS011;39850;43.324;21.916;2023-07-30T18:38:05;10.0;;;8.0;;
53939;SDS011;39850;43.324;21.916;2023-07-30T19:15:05;11.0;;;11.0;;
53939;SDS011;39850;43.324;21.916;2023-07-30T19:19:43;11.0;;;11.0;;
53939;SDS011;39850;43.324;21.916;2023-07-30T19:24:20;12.0;;;11.0;;
53939;SDS011;39850;43.324;21.916;2023-07-30T19:28:57;12.0;;;11.0;;
53939;SDS011;39850;43.324;21.916;2023-07-30T19:33:39;11.0;;;11.0;;
53939;SDS011;39850;43.324;21.916;2023-07-30T19:38:15;11.0;;;11.0;;
53939;SDS011;39850;43.324;21.916;2023-07-30T19:42:52;12.0;;;10.0;;
53939;SDS011;39850;43.324;21.916;2023-07-30T19:47:29;12.0;;;10.0;;
53939;SDS011;39850;43.324;21.916;2023-07-30T19:52:07;12.0;;;10.0;;
53939;SDS011;39850;43.324;21.916;2023-07-30T19:56:44;10.0;;;8.0;;
53939;SDS011;39850;43.324;21.916;2023-07-30T20:01:21;10.0;;;8.0;;
53939;SDS011;39850;43.324;21.916;2023-07-30T20:33:45;17.0;;;12.0;;
53939;SDS011;39850;43.324;21.916;2023-07-30T20:38:22;17.0;;;12.0;;
53939;SDS011;39850;43.324;21.916;2023-07-30T20:42:59;17.0;;;13.0;;
53939;SDS011;39850;43.324;21.916;2023-07-30T20:47:36;17.0;;;13.0;;
53939;SDS011;39850;43.324;21.916;2023-07-30T20:52:12;17.0;;;13.0;;
53939;SDS011;39850;43.324;21.916;2023-07-30T20:56:49;17.0;;;14.0;;
53939;SDS011;39850;43.324;21.916;2023-07-30T21:01:26;17.0;;;14.0;;
53939;SDS011;39850;43.324;21.916;2023-07-30T21:06:03;30.0;;;24.0;;
53939;SDS011;39850;43.324;21.916;2023-07-30T21:10:40;30.0;;;24.0;;
53939;SDS011;39850;43.324;21.916;2023-07-30T21:15:17;44.0;;;33.0;;
53939;SDS011;39850;43.324;21.916;2023-07-30T21:19:53;44.0;;;33.0;;
53939;SDS011;39850;43.324;21.916;2023-07-30T21:57:05;12.0;;;11.0;;
53939;SDS011;39850;43.324;21.916;2023-07-30T22:01:42;12.0;;;11.0;;
53939;SDS011;39850;43.324;21.916;2023-07-30T22:06:19;12.0;;;10.0;;
53939;SDS011;39850;43.324;21.916;2023-07-30T22:10:55;12.0;;;10.0;;
53939;SDS011;39850;43.324;21.916;2023-07-30T22:15:32;11.0;;;9.0;;
53939;SDS011;39850;43.324;21.916;2023-07-30T22:20:11;11.0;;;9.0;;
53939;SDS011;39850;43.324;21.916;2023-07-30T22:24:47;10.0;;;9.0;;
53939;SDS011;39850;43.324;21.916;2023-07-30T22:29:24;10.0;;;9.0;;
53939;SDS011;39850;43.324;21.916;2023-07-30T22:34:01;10.0;;;9.0;;
53939;SDS011;39850;43.324;21.916;2023-07-30T22:38:37;10.0;;;9.0;;
53939;SDS011;39850;43.324;21.916;2023-07-30T23:15:34;8.0;;;7.0;;
53939;SDS011;39850;43.324;21.916;2023-07-30T23:20:12;8.0;;;7.0;;
53939;SDS011;39850;43.324;21.916;2023-07-30T23:24:49;8.0;;;7.0;;
53939;SDS011;39850;43.324;21.916;2023-07-30T23:29:26;8.0;;;7.0;;
53939;SDS011;39850;43.324;21.916;2023-07-30T23:34:02;9.0;;;7.0;;
53939;SDS011;39850;43.324;21.916;2023-07-30T23:38:39;9.0;;;7.0;;
53939;SDS011;39850;43.324;21.916;2023-07-30T23:43:16;9.0;;;7.0;;
53939;SDS011;39850;43.324;21.916;2023-07-30T23:47:52;9.0;;;7.0;;
53939;SDS011;39850;43.324;21.916;2023-07-30T23:52:29;9.0;;;7.0;;
53939;SDS011;39850;43.324;21.916;2023-07-30T23:57:06;9.0;;;7.0;;
